createdAt,value
2023-03-26T00:00:44.298Z,4.40
2023-03-26T00:06:12.920Z,6.00
2023-03-26T00:11:17.616Z,5.30
2023-03-26T00:16:21.197Z,5.80
2023-03-26T00:21:28.142Z,4.90
2023-03-26T00:26:33.888Z,4.90
2023-03-26T00:31:39.920Z,4.20
2023-03-26T00:36:44.119Z,5.30
2023-03-26T00:41:46.909Z,4.40
2023-03-26T00:46:49.814Z,4.70
2023-03-26T00:51:53.224Z,5.00
2023-03-26T00:56:56.147Z,5.00
2023-03-26T01:01:59.181Z,4.40
2023-03-26T01:07:09.933Z,5.30
2023-03-26T01:12:17.141Z,5.80
2023-03-26T01:17:20.343Z,5.30
2023-03-26T01:22:26.836Z,5.50
2023-03-26T01:27:54.634Z,5.90
2023-03-26T01:33:07.510Z,6.00
2023-03-26T01:38:52.248Z,5.50
2023-03-26T01:44:06.634Z,6.40
2023-03-26T01:49:13.852Z,5.20
2023-03-26T01:54:21.595Z,5.90
2023-03-26T01:59:42.765Z,5.80
2023-03-26T02:05:25.093Z,5.80
2023-03-26T02:10:30.972Z,5.00
2023-03-26T02:15:33.867Z,5.20
2023-03-26T02:20:37.527Z,4.80
2023-03-26T02:25:42.201Z,5.20
2023-03-26T02:30:46.165Z,6.40
2023-03-26T02:35:49.132Z,5.80
2023-03-26T02:40:53.557Z,5.50
2023-03-26T02:45:57.067Z,6.80
2023-03-26T02:51:01.217Z,6.40
2023-03-26T02:56:04.997Z,5.90
2023-03-26T03:01:08.363Z,8.20
2023-03-26T03:06:11.300Z,6.90
2023-03-26T03:11:22.305Z,5.60
2023-03-26T03:16:25.222Z,6.90
2023-03-26T03:21:29.292Z,8.50
2023-03-26T03:26:32.436Z,7.30
2023-03-26T03:36:38.765Z,9.10
2023-03-26T03:41:42.100Z,8.00
2023-03-26T03:51:47.980Z,8.80
2023-03-26T03:56:51.311Z,9.40
2023-03-26T04:01:54.173Z,8.20
2023-03-26T04:06:57.004Z,10.50
2023-03-26T04:11:59.909Z,10.00
2023-03-26T04:17:05.673Z,6.90
2023-03-26T04:22:09.611Z,9.10
2023-03-26T04:27:16.719Z,7.30
2023-03-26T04:32:34.435Z,6.60
2023-03-26T04:37:41.429Z,10.20
2023-03-26T04:42:47.121Z,6.60
2023-03-26T04:47:50.967Z,7.60
2023-03-26T04:52:57.190Z,9.20
2023-03-26T04:58:03.549Z,8.10
2023-03-26T05:03:10.250Z,7.90
2023-03-26T05:08:13.212Z,7.80
2023-03-26T05:13:16.111Z,7.50
2023-03-26T05:18:19.018Z,7.20
2023-03-26T05:23:21.920Z,9.30
2023-03-26T05:28:26.853Z,6.20
2023-03-26T05:33:30.010Z,7.80
2023-03-26T05:43:36.500Z,8.20
2023-03-26T05:48:39.410Z,7.10
2023-03-26T05:53:42.308Z,9.60
2023-03-26T05:58:45.128Z,7.00
2023-03-26T06:03:50.740Z,7.50
2023-03-26T06:09:00.879Z,6.80
2023-03-26T06:14:07.101Z,6.60
2023-03-26T06:19:09.984Z,7.30
2023-03-26T06:24:13.048Z,4.60
2023-03-26T06:29:16.364Z,4.90
2023-03-26T06:34:19.565Z,4.80
2023-03-26T06:44:26.109Z,5.80
2023-03-26T06:49:29.099Z,4.10
2023-03-26T06:59:34.909Z,5.10
2023-03-26T07:04:38.463Z,5.00
2023-03-26T07:09:41.332Z,6.20
2023-03-26T07:14:44.481Z,5.80
2023-03-26T07:24:51.112Z,4.50
2023-03-26T07:29:57.868Z,5.40
2023-03-26T07:35:22.445Z,4.90
2023-03-26T07:40:48.219Z,4.90
2023-03-26T07:45:51.279Z,5.60
2023-03-26T07:56:04.391Z,3.90
2023-03-26T08:01:47.845Z,3.80
2023-03-26T08:06:58.632Z,3.60
2023-03-26T08:12:13.927Z,3.90
2023-03-26T08:17:20.121Z,3.90
2023-03-26T08:22:38.395Z,3.60
2023-03-26T08:27:43.506Z,6.50
2023-03-26T08:32:54.582Z,6.90
2023-03-26T08:37:58.286Z,4.70
2023-03-26T08:43:22.855Z,5.50
2023-03-26T08:48:47.364Z,4.10
2023-03-26T08:54:19.871Z,4.00
2023-03-26T08:59:41.609Z,4.20
2023-03-26T09:05:10.460Z,4.70
2023-03-26T09:10:40.153Z,3.90
2023-03-26T09:16:02.042Z,3.20
2023-03-26T09:21:10.666Z,3.00
2023-03-26T09:27:04.373Z,5.80
2023-03-26T09:37:34.073Z,2.60
2023-03-26T09:42:49.404Z,2.60
2023-03-26T09:47:54.992Z,3.90
2023-03-26T09:53:09.349Z,3.40
2023-03-26T09:58:30.883Z,3.10
2023-03-26T10:04:06.246Z,3.80
2023-03-26T10:09:41.036Z,3.40
2023-03-26T10:14:59.872Z,3.90
2023-03-26T10:20:37.731Z,3.10
2023-03-26T10:26:11.622Z,1.70
2023-03-26T10:31:48.626Z,3.50
2023-03-26T10:37:08.876Z,3.50
2023-03-26T10:42:37.143Z,2.80
2023-03-26T10:48:12.395Z,3.60
2023-03-26T10:53:30.865Z,2.50
2023-03-26T10:58:48.562Z,3.90
2023-03-26T11:03:55.765Z,6.00
2023-03-26T11:09:26.377Z,2.60
2023-03-26T11:14:43.290Z,5.10
2023-03-26T11:19:57.890Z,3.10
2023-03-26T11:25:09.801Z,5.30
2023-03-26T11:30:28.391Z,5.90
2023-03-26T11:35:39.670Z,3.40
2023-03-26T11:40:50.695Z,1.80
2023-03-26T11:45:54.167Z,1.90
2023-03-26T11:51:04.467Z,3.60
2023-03-26T11:56:15.253Z,6.50
2023-03-26T12:01:30.147Z,2.50
2023-03-26T12:06:33.132Z,3.50
2023-03-26T12:11:36.444Z,6.20
2023-03-26T12:17:00.831Z,2.90
2023-03-26T12:22:04.368Z,1.30
2023-03-26T12:27:22.225Z,1.40
2023-03-26T12:32:35.510Z,4.00
2023-03-26T12:37:47.323Z,7.20
2023-03-26T12:44:46.607Z,12.90
2023-03-26T12:48:25.664Z,3.80
2023-03-26T12:53:34.706Z,3.30
2023-03-26T12:59:01.919Z,2.60
2023-03-26T13:04:24.514Z,3.40
2023-03-26T13:09:43.882Z,2.70
2023-03-26T13:14:58.619Z,3.50
2023-03-26T13:20:12.430Z,3.50
2023-03-26T13:25:21.158Z,3.40
2023-03-26T13:30:59.342Z,2.80
2023-03-26T13:36:24.001Z,3.70
2023-03-26T13:41:59.963Z,10.90
2023-03-26T13:47:15.012Z,3.90
2023-03-26T13:52:30.836Z,4.70
2023-03-26T13:57:39.671Z,2.50
2023-03-26T14:02:44.309Z,3.50
2023-03-26T14:07:57.464Z,3.50
2023-03-26T14:13:07.738Z,9.80
2023-03-26T14:18:22.830Z,54.20
2023-03-26T14:23:45.495Z,6.10
2023-03-26T14:28:57.004Z,8.90
2023-03-26T14:34:52.570Z,12.70
2023-03-26T14:39:55.602Z,5.40
2023-03-26T14:50:48.663Z,2.90
2023-03-26T14:55:54.335Z,2.50
2023-03-26T15:01:19.097Z,3.00
2023-03-26T15:06:42.023Z,2.90
2023-03-26T15:12:12.494Z,6.90
2023-03-26T15:17:35.878Z,13.40
2023-03-26T15:22:54.259Z,8.00
2023-03-26T15:28:35.316Z,11.80
2023-03-26T15:33:47.128Z,3.10
2023-03-26T15:39:17.989Z,20.30
2023-03-26T15:44:40.959Z,16.10
2023-03-26T15:50:35.986Z,11.50
2023-03-26T15:55:57.139Z,9.30
2023-03-26T16:01:19.834Z,10.20
2023-03-26T16:06:31.053Z,8.60
2023-03-26T16:11:50.072Z,9.80
2023-03-26T16:17:00.610Z,19.40
2023-03-26T16:22:15.530Z,10.20
2023-03-26T16:27:30.394Z,12.80
2023-03-26T16:32:35.608Z,15.70
2023-03-26T16:37:46.258Z,10.90
2023-03-26T16:43:26.966Z,9.90
2023-03-26T16:48:39.074Z,11.90
2023-03-26T16:53:46.172Z,14.40
2023-03-26T16:58:55.104Z,8.90
2023-03-26T17:04:20.624Z,8.50
2023-03-26T17:10:03.466Z,5.90
2023-03-26T17:15:41.313Z,5.30
2023-03-26T17:20:57.910Z,5.80
2023-03-26T17:26:08.661Z,13.40
2023-03-26T17:31:35.364Z,15.70
2023-03-26T17:36:42.478Z,14.10
2023-03-26T17:41:51.132Z,31.40
2023-03-26T17:46:57.052Z,6.50
2023-03-26T17:52:17.061Z,6.90
2023-03-26T17:57:30.837Z,9.20
2023-03-26T18:02:47.763Z,11.10
2023-03-26T18:08:03.676Z,13.50
2023-03-26T18:13:23.099Z,18.80
2023-03-26T18:18:37.368Z,10.20
2023-03-26T18:23:47.666Z,16.60
2023-03-26T18:28:54.442Z,13.40
2023-03-26T18:34:09.526Z,8.60
2023-03-26T18:39:13.577Z,5.90
2023-03-26T18:44:18.672Z,7.30
2023-03-26T18:49:24.157Z,6.60
2023-03-26T18:54:34.288Z,7.30
2023-03-26T18:59:41.436Z,7.50
2023-03-26T19:04:47.108Z,8.70
2023-03-26T19:09:56.063Z,7.10
2023-03-26T19:15:10.874Z,10.30
2023-03-26T19:20:21.073Z,5.40
2023-03-26T19:25:37.133Z,5.10
2023-03-26T19:30:42.221Z,5.60
2023-03-26T19:35:51.924Z,5.60
2023-03-26T19:40:57.396Z,6.10
2023-03-26T19:46:01.339Z,4.60
2023-03-26T19:51:06.299Z,5.60
2023-03-26T19:56:10.237Z,11.50
2023-03-26T20:01:21.556Z,3.90
2023-03-26T20:06:41.719Z,4.00
2023-03-26T20:11:47.203Z,5.20
2023-03-26T20:16:50.137Z,5.20
2023-03-26T20:21:53.542Z,5.10
2023-03-26T20:31:59.326Z,8.30
2023-03-26T20:37:02.249Z,11.70
2023-03-26T20:42:05.331Z,8.00
2023-03-26T20:47:11.005Z,4.40
2023-03-26T20:52:15.538Z,5.60
2023-03-26T20:57:18.793Z,4.80
2023-03-26T21:02:21.962Z,5.10
2023-03-26T21:12:33.619Z,5.20
2023-03-26T21:17:37.485Z,4.10
2023-03-26T21:23:07.678Z,4.80
2023-03-26T21:28:39.753Z,7.90
2023-03-26T21:33:45.870Z,6.90
2023-03-26T21:38:50.645Z,5.60
2023-03-26T21:43:53.594Z,4.70
2023-03-26T21:48:56.907Z,5.50
2023-03-26T21:54:00.506Z,5.40
2023-03-26T21:59:24.628Z,8.00
2023-03-26T22:04:48.934Z,10.30
2023-03-26T22:09:52.253Z,8.30
2023-03-26T22:19:57.954Z,9.40
2023-03-26T22:25:01.305Z,24.80
2023-03-26T22:30:04.639Z,20.40
2023-03-26T22:35:08.355Z,15.20
2023-03-26T22:40:14.699Z,15.90
2023-03-26T22:45:17.701Z,21.20
2023-03-26T22:50:20.804Z,32.50
2023-03-26T22:55:28.994Z,25.20
2023-03-26T23:00:32.959Z,31.90
2023-03-26T23:05:35.862Z,28.30
2023-03-26T23:10:42.595Z,25.20
2023-03-26T23:15:45.609Z,24.10
2023-03-26T23:20:55.488Z,23.10
2023-03-26T23:26:03.871Z,21.70
2023-03-26T23:31:09.509Z,18.10
2023-03-26T23:36:14.802Z,16.60
2023-03-26T23:41:21.750Z,23.60
2023-03-26T23:46:31.072Z,22.00
2023-03-26T23:51:36.214Z,21.30
2023-03-26T23:56:39.128Z,18.10
